Time;durP1;ratioP1;P1;durP2;ratioP2;P2;SDS_P1;SDS_P2;PMS_P1;PMS_P2;Temp;Humidity;BMP_temperature;BMP_pressure;BME280_temperature;BME280_humidity;BME280_pressure;Samples;Min_cycle;Max_cycle;Signal;HPM_P1;HPM_P2
2023/06/17 00:00:20;;;;;;;11.02;8.18;;;;;;;;;;5079432;28;20220;-70
2023/06/17 00:02:45;;;;;;;9.05;7.57;;;;;;;;;;5081747;28;20219;-70
2023/06/17 00:05:11;;;;;;;11.65;8.90;;;;;;;;;;5076061;28;20250;-70
2023/06/17 00:07:36;;;;;;;13.52;9.15;;;;;;;;;;5081749;28;20204;-70
2023/06/17 00:10:01;;;;;;;13.35;9.00;;;;;;;;;;5064868;28;20200;-70
2023/06/17 00:12:31;;;;;;;11.93;8.73;;;;;;;;;;5070704;28;20659;-70
2023/06/17 00:15:01;;;;;;;14.50;9.32;;;;;;;;;;5084268;28;20193;-70
2023/06/17 00:17:29;;;;;;;11.13;9.13;;;;;;;;;;5087733;28;20279;-70
2023/06/17 00:19:56;;;;;;;11.25;9.32;;;;;;;;;;5083963;28;20188;-70
2023/06/17 00:22:25;;;;;;;11.77;8.75;;;;;;;;;;5080115;28;20220;-70
2023/06/17 00:24:51;;;;;;;12.77;9.32;;;;;;;;;;5076370;28;20468;-70
2023/06/17 00:27:17;;;;;;;14.90;9.48;;;;;;;;;;5076016;28;20683;-70
2023/06/17 00:29:42;;;;;;;10.95;9.43;;;;;;;;;;5078743;28;20187;-70
2023/06/17 00:32:08;;;;;;;12.82;9.48;;;;;;;;;;5086637;28;20271;-70
2023/06/17 00:34:34;;;;;;;14.05;9.40;;;;;;;;;;5077864;28;20193;-70
2023/06/17 00:36:59;;;;;;;11.68;9.43;;;;;;;;;;5076299;28;20192;-70
2023/06/17 00:39:24;;;;;;;14.00;9.40;;;;;;;;;;5081382;28;20228;-70
2023/06/17 00:41:50;;;;;;;13.70;9.90;;;;;;;;;;5084350;28;20237;-70
2023/06/17 00:44:15;;;;;;;13.93;10.38;;;;;;;;;;5085561;28;20629;-70
2023/06/17 00:46:50;;;;;;;15.70;10.63;;;;;;;;;;5074294;28;20257;-70
2023/06/17 00:49:16;;;;;;;12.30;9.75;;;;;;;;;;5083461;28;20719;-70
2023/06/17 00:51:41;;;;;;;16.08;11.25;;;;;;;;;;5077360;28;20331;-70
2023/06/17 00:54:07;;;;;;;14.85;10.65;;;;;;;;;;5088743;28;20349;-70
2023/06/17 00:56:36;;;;;;;15.85;10.95;;;;;;;;;;5077344;28;20220;-70
2023/06/17 00:59:02;;;;;;;16.98;11.90;;;;;;;;;;5073906;28;20195;-70
2023/06/17 01:01:29;;;;;;;14.73;10.75;;;;;;;;;;5069886;28;20358;-70
2023/06/17 01:03:55;;;;;;;14.77;10.60;;;;;;;;;;5085117;28;20207;-70
2023/06/17 01:06:42;;;;;;;14.98;11.60;;;;;;;;;;5089019;28;20219;-70
2023/06/17 01:09:11;;;;;;;16.25;11.68;;;;;;;;;;5087127;28;21554;-70
2023/06/17 01:11:39;;;;;;;14.18;11.40;;;;;;;;;;5083953;28;20188;-70
2023/06/17 01:14:05;;;;;;;18.15;12.52;;;;;;;;;;5079448;28;20191;-70
2023/06/17 01:16:32;;;;;;;14.80;11.85;;;;;;;;;;5088947;28;20188;-70
2023/06/17 01:18:59;;;;;;;15.77;12.18;;;;;;;;;;5075234;28;20265;-70
2023/06/17 01:21:28;;;;;;;14.35;11.50;;;;;;;;;;5079940;28;20223;-69
2023/06/17 01:23:58;;;;;;;14.80;11.88;;;;;;;;;;5081732;28;20215;-70
2023/06/17 01:26:24;;;;;;;14.57;12.10;;;;;;;;;;5075867;28;20266;-69
2023/06/17 01:28:49;;;;;;;13.73;11.48;;;;;;;;;;5083899;28;20184;-70
2023/06/17 01:31:18;;;;;;;15.88;12.57;;;;;;;;;;5086253;28;20253;-70
2023/06/17 01:33:46;;;;;;;16.45;12.70;;;;;;;;;;5079964;28;20239;-69
2023/06/17 01:36:22;;;;;;;18.92;13.23;;;;;;;;;;5068504;28;20176;-70
2023/06/17 01:38:51;;;;;;;20.48;13.50;;;;;;;;;;5078771;28;20446;-70
2023/06/17 01:41:21;;;;;;;17.05;12.40;;;;;;;;;;5073393;28;20194;-70
2023/06/17 01:43:49;;;;;;;16.13;12.80;;;;;;;;;;5085124;28;20416;-70
2023/06/17 01:46:15;;;;;;;16.52;12.05;;;;;;;;;;5082508;28;20743;-70
2023/06/17 01:48:41;;;;;;;14.18;12.13;;;;;;;;;;5088095;28;20222;-70
2023/06/17 01:51:06;;;;;;;17.73;12.55;;;;;;;;;;5083494;28;20212;-70
2023/06/17 01:53:32;;;;;;;17.92;12.60;;;;;;;;;;5065876;28;20629;-70
2023/06/17 01:55:57;;;;;;;19.52;13.50;;;;;;;;;;5083848;28;20208;-69
2023/06/17 01:58:23;;;;;;;20.98;14.43;;;;;;;;;;5084299;28;20238;-70
2023/06/17 02:00:48;;;;;;;16.98;13.15;;;;;;;;;;5077624;28;20232;-69
2023/06/17 02:03:15;;;;;;;16.25;12.63;;;;;;;;;;5083151;28;20196;-70
2023/06/17 02:05:41;;;;;;;16.65;13.32;;;;;;;;;;5077726;28;20192;-70
2023/06/17 02:08:07;;;;;;;21.15;14.52;;;;;;;;;;5084014;28;20620;-71
2023/06/17 02:10:33;;;;;;;17.30;13.27;;;;;;;;;;5082807;28;20184;-70
2023/06/17 02:13:01;;;;;;;16.48;13.00;;;;;;;;;;5091652;28;20228;-70
2023/06/17 02:15:27;;;;;;;14.80;12.88;;;;;;;;;;5087941;28;20270;-70
2023/06/17 02:17:53;;;;;;;15.95;13.20;;;;;;;;;;5083148;28;20268;-70
2023/06/17 02:20:18;;;;;;;16.55;12.90;;;;;;;;;;5084545;28;20201;-70
2023/06/17 02:22:44;;;;;;;23.77;15.90;;;;;;;;;;5079108;28;20253;-70
2023/06/17 02:25:09;;;;;;;16.35;13.27;;;;;;;;;;5077188;28;20302;-70
2023/06/17 02:27:35;;;;;;;21.52;12.95;;;;;;;;;;5072894;28;20273;-70
2023/06/17 02:30:00;;;;;;;20.05;13.95;;;;;;;;;;5078224;28;20188;-70
2023/06/17 02:32:27;;;;;;;19.95;13.82;;;;;;;;;;5089468;28;20244;-71
2023/06/17 02:34:54;;;;;;;17.58;13.15;;;;;;;;;;5077428;28;20614;-71
2023/06/17 02:37:20;;;;;;;18.73;13.73;;;;;;;;;;5094735;28;20647;-70
2023/06/17 02:39:45;;;;;;;16.00;13.23;;;;;;;;;;5086800;28;20276;-70
2023/06/17 02:42:11;;;;;;;15.15;13.48;;;;;;;;;;5082314;28;20180;-70
2023/06/17 02:44:37;;;;;;;18.58;13.80;;;;;;;;;;5076618;28;20223;-70
2023/06/17 02:47:02;;;;;;;19.23;13.65;;;;;;;;;;5091033;28;20188;-70
2023/06/17 02:49:28;;;;;;;17.42;13.55;;;;;;;;;;5089574;28;20703;-70
2023/06/17 02:51:53;;;;;;;20.48;13.57;;;;;;;;;;5086176;28;20184;-70
2023/06/17 02:54:19;;;;;;;17.83;14.82;;;;;;;;;;5078745;28;20254;-71
2023/06/17 02:56:44;;;;;;;16.33;13.60;;;;;;;;;;5083364;28;20611;-71
2023/06/17 02:59:10;;;;;;;16.33;13.20;;;;;;;;;;5082133;28;20228;-70
2023/06/17 03:01:42;;;;;;;17.02;13.48;;;;;;;;;;5074443;28;20729;-71
2023/06/17 03:04:08;;;;;;;14.25;12.73;;;;;;;;;;5084762;28;20216;-71
2023/06/17 03:06:34;;;;;;;15.85;13.40;;;;;;;;;;5082878;28;20631;-71
2023/06/17 03:09:00;;;;;;;15.30;13.30;;;;;;;;;;5087055;28;20188;-70
2023/06/17 03:11:28;;;;;;;18.58;14.25;;;;;;;;;;5081155;28;20215;-70
2023/06/17 03:13:54;;;;;;;18.20;15.20;;;;;;;;;;5082686;28;20271;-70
2023/06/17 03:16:19;;;;;;;16.73;13.95;;;;;;;;;;5088692;28;20271;-70
2023/06/17 03:18:45;;;;;;;19.63;15.00;;;;;;;;;;5088688;28;20480;-70
2023/06/17 03:21:10;;;;;;;16.40;14.65;;;;;;;;;;5088175;28;20242;-70
2023/06/17 03:23:37;;;;;;;18.40;14.50;;;;;;;;;;5086837;28;20279;-70
2023/06/17 03:26:02;;;;;;;21.40;14.50;;;;;;;;;;5081316;28;20184;-70
2023/06/17 03:28:27;;;;;;;18.40;14.38;;;;;;;;;;5079017;28;20189;-70
2023/06/17 03:30:53;;;;;;;21.05;15.38;;;;;;;;;;5077217;28;20208;-70
2023/06/17 03:33:18;;;;;;;17.88;15.60;;;;;;;;;;5082073;28;20193;-70
2023/06/17 03:35:43;;;;;;;18.83;15.55;;;;;;;;;;5077452;28;20677;-70
2023/06/17 03:38:09;;;;;;;19.08;14.77;;;;;;;;;;5070031;28;20180;-70
2023/06/17 03:40:35;;;;;;;23.40;14.85;;;;;;;;;;5081106;28;20312;-70
2023/06/17 03:43:01;;;;;;;20.33;15.48;;;;;;;;;;5083768;28;20586;-70
2023/06/17 03:45:28;;;;;;;18.52;15.75;;;;;;;;;;5090191;28;20283;-71
2023/06/17 03:47:53;;;;;;;20.35;15.50;;;;;;;;;;5086458;28;20196;-70
2023/06/17 03:50:19;;;;;;;17.02;14.85;;;;;;;;;;5089232;28;20196;-69
2023/06/17 03:52:44;;;;;;;21.48;15.77;;;;;;;;;;5089301;28;20200;-69
2023/06/17 03:55:10;;;;;;;19.83;15.15;;;;;;;;;;5089527;28;20191;-70
2023/06/17 03:57:35;;;;;;;17.42;15.38;;;;;;;;;;5071449;28;20177;-69
2023/06/17 04:00:00;;;;;;;21.35;15.55;;;;;;;;;;5083623;28;20197;-69
2023/06/17 04:02:26;;;;;;;20.77;14.77;;;;;;;;;;5089114;28;20245;-70
2023/06/17 04:04:52;;;;;;;19.77;15.30;;;;;;;;;;5073450;28;20221;-70
2023/06/17 04:07:19;;;;;;;18.45;15.40;;;;;;;;;;5054719;28;20192;-70
2023/06/17 04:09:45;;;;;;;20.10;17.23;;;;;;;;;;5071646;28;20243;-70
2023/06/17 04:12:10;;;;;;;20.45;16.73;;;;;;;;;;5086003;28;20205;-70
2023/06/17 04:14:36;;;;;;;20.73;16.45;;;;;;;;;;5089866;28;20524;-70
2023/06/17 04:17:01;;;;;;;22.85;17.45;;;;;;;;;;5084525;28;20616;-70
2023/06/17 04:19:27;;;;;;;21.80;16.77;;;;;;;;;;5078567;28;20207;-70
2023/06/17 04:21:52;;;;;;;25.63;17.63;;;;;;;;;;5074737;28;20181;-70
2023/06/17 04:24:18;;;;;;;20.92;17.30;;;;;;;;;;5071019;28;20338;-70
2023/06/17 04:26:44;;;;;;;21.70;17.48;;;;;;;;;;5077471;28;20870;-70
2023/06/17 04:29:10;;;;;;;22.17;18.05;;;;;;;;;;5082213;28;20283;-70
2023/06/17 04:31:40;;;;;;;20.10;15.68;;;;;;;;;;5084843;28;20268;-70
2023/06/17 04:34:05;;;;;;;25.33;16.67;;;;;;;;;;5085128;28;20183;-71
2023/06/17 04:36:30;;;;;;;20.27;16.27;;;;;;;;;;5084983;28;20198;-70
2023/06/17 04:38:56;;;;;;;22.67;15.85;;;;;;;;;;5087180;28;20215;-71
2023/06/17 04:41:21;;;;;;;21.42;15.88;;;;;;;;;;5085323;28;20256;-70
2023/06/17 04:43:48;;;;;;;23.00;15.77;;;;;;;;;;5081199;28;20300;-71
2023/06/17 04:46:17;;;;;;;18.90;15.32;;;;;;;;;;5082770;28;20198;-70
2023/06/17 04:48:43;;;;;;;24.65;15.98;;;;;;;;;;5072431;28;20201;-70
2023/06/17 04:51:10;;;;;;;19.67;16.05;;;;;;;;;;5082214;28;20191;-70
2023/06/17 04:53:38;;;;;;;18.73;15.48;;;;;;;;;;5079010;28;20173;-71
2023/06/17 04:56:04;;;;;;;18.65;15.57;;;;;;;;;;5083836;28;20176;-71
2023/06/17 04:58:29;;;;;;;20.08;14.52;;;;;;;;;;5072268;28;20658;-71
2023/06/17 05:00:55;;;;;;;19.08;15.13;;;;;;;;;;5084829;28;20571;-70
2023/06/17 05:03:20;;;;;;;19.75;15.40;;;;;;;;;;5076286;28;20204;-70
2023/06/17 05:05:45;;;;;;;18.42;15.60;;;;;;;;;;5072690;28;20321;-71
2023/06/17 05:08:11;;;;;;;20.13;15.25;;;;;;;;;;5077438;28;20196;-71
2023/06/17 05:10:36;;;;;;;20.10;15.65;;;;;;;;;;5082154;28;20267;-71
2023/06/17 05:13:01;;;;;;;19.83;14.95;;;;;;;;;;5078609;28;20188;-71
2023/06/17 05:15:27;;;;;;;16.85;14.90;;;;;;;;;;5078563;28;20184;-70
2023/06/17 05:17:53;;;;;;;22.27;15.57;;;;;;;;;;5082563;28;20226;-71
2023/06/17 05:20:18;;;;;;;21.20;15.35;;;;;;;;;;5076559;28;20184;-71
2023/06/17 05:22:44;;;;;;;20.20;15.18;;;;;;;;;;5078052;28;20576;-71
2023/06/17 05:25:09;;;;;;;22.25;14.05;;;;;;;;;;5069210;28;20219;-71
2023/06/17 05:27:34;;;;;;;20.40;15.38;;;;;;;;;;5075912;28;20189;-71
2023/06/17 05:30:00;;;;;;;21.17;14.55;;;;;;;;;;5074660;28;20180;-69
2023/06/17 05:32:25;;;;;;;22.30;15.57;;;;;;;;;;5070442;28;20238;-70
2023/06/17 05:34:50;;;;;;;21.02;15.52;;;;;;;;;;5065929;28;20184;-70
2023/06/17 05:37:16;;;;;;;18.45;15.00;;;;;;;;;;5068389;28;20190;-70
2023/06/17 05:39:41;;;;;;;19.80;14.80;;;;;;;;;;5082678;28;20228;-70
2023/06/17 05:42:07;;;;;;;19.30;14.30;;;;;;;;;;5082463;28;20725;-71
2023/06/17 05:44:32;;;;;;;20.80;13.65;;;;;;;;;;5071607;28;20316;-72
2023/06/17 05:46:57;;;;;;;18.85;13.13;;;;;;;;;;5077473;28;20645;-72
2023/06/17 05:49:23;;;;;;;16.85;13.23;;;;;;;;;;5079563;28;20196;-72
2023/06/17 05:51:48;;;;;;;17.13;12.77;;;;;;;;;;5070308;28;20675;-72
2023/06/17 05:54:14;;;;;;;18.13;13.13;;;;;;;;;;5074355;28;20196;-72
2023/06/17 05:56:39;;;;;;;20.02;12.63;;;;;;;;;;5069743;28;20710;-71
2023/06/17 05:59:05;;;;;;;15.52;12.30;;;;;;;;;;5077857;28;20276;-71
2023/06/17 06:01:31;;;;;;;18.77;13.40;;;;;;;;;;5075425;28;20595;-71
2023/06/17 06:03:56;;;;;;;18.30;12.82;;;;;;;;;;5077005;28;20213;-71
2023/06/17 06:06:21;;;;;;;14.43;12.13;;;;;;;;;;5087505;28;20215;-72
2023/06/17 06:08:47;;;;;;;16.05;11.38;;;;;;;;;;5069336;28;20204;-72
2023/06/17 06:11:12;;;;;;;20.25;12.57;;;;;;;;;;5075067;28;20227;-71
2023/06/17 06:13:37;;;;;;;16.48;12.45;;;;;;;;;;5084706;28;20736;-71
2023/06/17 06:16:03;;;;;;;20.75;12.88;;;;;;;;;;5079615;28;20185;-72
2023/06/17 06:18:29;;;;;;;21.75;13.05;;;;;;;;;;5081341;28;20200;-72
2023/06/17 06:20:55;;;;;;;16.80;13.05;;;;;;;;;;5072159;28;20188;-71
2023/06/17 06:23:20;;;;;;;14.20;12.43;;;;;;;;;;5086096;28;20188;-72
2023/06/17 06:25:46;;;;;;;18.08;13.65;;;;;;;;;;5080837;28;20184;-72
2023/06/17 06:28:11;;;;;;;16.42;12.70;;;;;;;;;;5086829;28;20189;-71
2023/06/17 06:30:36;;;;;;;18.38;13.95;;;;;;;;;;5086068;28;20202;-72
2023/06/17 06:33:02;;;;;;;18.42;13.57;;;;;;;;;;5086450;28;20196;-71
2023/06/17 06:35:27;;;;;;;21.92;13.90;;;;;;;;;;5083899;28;20253;-71
2023/06/17 06:37:53;;;;;;;19.00;13.73;;;;;;;;;;5072678;28;20193;-73
2023/06/17 06:40:18;;;;;;;18.30;13.70;;;;;;;;;;5065579;28;20723;-72
2023/06/17 06:42:43;;;;;;;18.85;12.63;;;;;;;;;;5078371;28;20196;-72
2023/06/17 06:45:09;;;;;;;15.65;12.23;;;;;;;;;;5089459;28;20235;-71
2023/06/17 06:47:35;;;;;;;22.15;12.80;;;;;;;;;;5087932;28;20513;-71
2023/06/17 06:50:00;;;;;;;21.17;13.00;;;;;;;;;;5073740;28;20241;-72
2023/06/17 06:52:26;;;;;;;19.08;11.43;;;;;;;;;;5085533;28;20245;-72
2023/06/17 06:54:51;;;;;;;19.10;11.95;;;;;;;;;;5072214;28;20196;-72
2023/06/17 06:57:17;;;;;;;14.65;11.88;;;;;;;;;;5085802;28;20536;-71
2023/06/17 06:59:42;;;;;;;18.35;12.98;;;;;;;;;;5075517;28;20181;-71
2023/06/17 07:02:07;;;;;;;19.65;12.48;;;;;;;;;;5077841;28;20215;-71
2023/06/17 07:04:33;;;;;;;15.38;11.98;;;;;;;;;;5076517;28;20237;-71
2023/06/17 07:06:58;;;;;;;16.90;11.80;;;;;;;;;;5081211;28;20461;-71
2023/06/17 07:09:23;;;;;;;19.90;12.25;;;;;;;;;;5077470;28;20177;-72
2023/06/17 07:11:49;;;;;;;15.75;11.48;;;;;;;;;;5082477;28;20207;-72
2023/06/17 07:14:14;;;;;;;15.27;12.20;;;;;;;;;;5082569;28;20242;-71
2023/06/17 07:16:40;;;;;;;16.20;13.05;;;;;;;;;;5077479;28;20214;-71
2023/06/17 07:19:05;;;;;;;17.35;12.35;;;;;;;;;;5083974;28;20188;-71
2023/06/17 07:21:30;;;;;;;15.90;12.65;;;;;;;;;;5076726;28;20235;-71
2023/06/17 07:23:56;;;;;;;19.63;12.60;;;;;;;;;;5072889;28;20577;-71
2023/06/17 07:26:21;;;;;;;15.13;11.68;;;;;;;;;;5070954;28;20192;-72
2023/06/17 07:28:46;;;;;;;14.45;12.85;;;;;;;;;;5080131;28;20273;-71
2023/06/17 07:31:12;;;;;;;19.05;12.55;;;;;;;;;;5076891;28;20188;-72
2023/06/17 07:33:39;;;;;;;15.57;11.82;;;;;;;;;;5081315;28;20197;-71
2023/06/17 07:36:05;;;;;;;15.05;11.38;;;;;;;;;;5077814;28;20260;-73
2023/06/17 07:38:32;;;;;;;17.70;12.45;;;;;;;;;;5077247;28;20547;-72
2023/06/17 07:40:58;;;;;;;15.05;11.02;;;;;;;;;;5070412;28;20196;-72
2023/06/17 07:43:23;;;;;;;18.02;12.75;;;;;;;;;;5081488;28;20201;-73
2023/06/17 07:45:48;;;;;;;16.35;12.10;;;;;;;;;;5076661;28;20199;-71
2023/06/17 07:48:16;;;;;;;14.65;11.93;;;;;;;;;;5074957;28;20192;-73
2023/06/17 07:50:41;;;;;;;16.17;11.60;;;;;;;;;;5079058;28;20615;-71
2023/06/17 07:53:06;;;;;;;15.43;10.63;;;;;;;;;;5081571;28;20219;-73
2023/06/17 07:55:32;;;;;;;12.93;10.73;;;;;;;;;;5080863;28;20184;-71
2023/06/17 07:57:57;;;;;;;22.42;11.35;;;;;;;;;;5086583;28;20192;-72
2023/06/17 08:00:23;;;;;;;14.88;10.68;;;;;;;;;;5085489;28;20257;-72
2023/06/17 08:02:48;;;;;;;17.05;11.45;;;;;;;;;;5086634;28;20196;-71
2023/06/17 08:05:13;;;;;;;18.35;11.38;;;;;;;;;;5083053;28;20948;-71
2023/06/17 08:07:39;;;;;;;15.63;11.10;;;;;;;;;;5082656;28;20202;-72
2023/06/17 08:10:05;;;;;;;15.55;11.07;;;;;;;;;;5072130;28;20193;-72
2023/06/17 08:12:31;;;;;;;15.63;10.48;;;;;;;;;;5086071;28;20184;-72
2023/06/17 08:14:56;;;;;;;15.18;11.10;;;;;;;;;;5076659;28;20713;-72
2023/06/17 08:17:22;;;;;;;12.95;11.05;;;;;;;;;;5074568;28;20271;-71
2023/06/17 08:19:47;;;;;;;15.07;11.15;;;;;;;;;;5080967;28;20200;-71
2023/06/17 08:22:13;;;;;;;15.45;11.10;;;;;;;;;;5072892;28;20192;-72
2023/06/17 08:24:38;;;;;;;14.30;10.80;;;;;;;;;;5071764;28;20315;-71
2023/06/17 08:27:05;;;;;;;12.50;9.88;;;;;;;;;;5067991;28;20636;-69
2023/06/17 08:29:31;;;;;;;12.98;10.50;;;;;;;;;;5078115;28;20544;-70
2023/06/17 08:31:56;;;;;;;13.73;9.90;;;;;;;;;;5078556;28;20233;-70
2023/06/17 08:34:22;;;;;;;15.10;10.05;;;;;;;;;;5081541;28;20605;-69
2023/06/17 08:36:54;;;;;;;15.60;11.13;;;;;;;;;;5074425;28;20286;-72
2023/06/17 08:39:20;;;;;;;15.82;10.93;;;;;;;;;;5072595;28;20316;-70
2023/06/17 08:41:46;;;;;;;13.02;10.10;;;;;;;;;;5087381;28;20299;-72
2023/06/17 08:44:12;;;;;;;15.43;10.48;;;;;;;;;;5082592;28;20223;-71
2023/06/17 08:46:39;;;;;;;18.45;11.35;;;;;;;;;;5086099;28;20187;-71
2023/06/17 08:49:07;;;;;;;15.82;10.68;;;;;;;;;;5081502;28;20642;-72
2023/06/17 08:51:33;;;;;;;11.20;9.55;;;;;;;;;;5083450;28;20215;-72
2023/06/17 08:54:00;;;;;;;12.57;9.70;;;;;;;;;;5080671;28;20191;-72
2023/06/17 08:56:26;;;;;;;13.77;10.27;;;;;;;;;;5074025;28;20184;-71
2023/06/17 08:58:54;;;;;;;16.45;10.30;;;;;;;;;;5084630;28;20642;-71
2023/06/17 09:01:20;;;;;;;12.75;9.40;;;;;;;;;;5081830;28;20217;-71
2023/06/17 09:03:46;;;;;;;12.40;8.60;;;;;;;;;;5076561;28;20217;-71
2023/06/17 09:06:14;;;;;;;13.68;9.13;;;;;;;;;;5068623;28;20656;-71
2023/06/17 09:08:41;;;;;;;12.68;9.10;;;;;;;;;;5073711;28;20672;-71
2023/06/17 09:11:07;;;;;;;13.52;9.93;;;;;;;;;;5070130;28;20192;-72
2023/06/17 09:13:32;;;;;;;14.88;9.70;;;;;;;;;;5087217;28;20514;-72
2023/06/17 09:15:59;;;;;;;11.52;9.57;;;;;;;;;;5081237;28;20189;-72
2023/06/17 09:18:24;;;;;;;15.63;10.00;;;;;;;;;;4374774;28;10000813;-71
2023/06/17 09:20:57;;;;;;;12.73;9.30;;;;;;;;;;5068538;28;20229;-70
2023/06/17 09:23:25;;;;;;;13.43;9.60;;;;;;;;;;5076031;28;20272;-69
2023/06/17 09:26:00;;;;;;;12.93;8.38;;;;;;;;;;5066602;28;20268;-69
2023/06/17 09:28:26;;;;;;;10.32;8.10;;;;;;;;;;5072806;28;20655;-70
2023/06/17 09:30:53;;;;;;;8.50;7.55;;;;;;;;;;5072434;28;20595;-70
2023/06/17 09:33:22;;;;;;;7.95;5.70;;;;;;;;;;5066817;28;20197;-70
2023/06/17 09:35:58;;;;;;;8.52;6.78;;;;;;;;;;5078962;28;20588;-70
2023/06/17 09:38:23;;;;;;;8.35;6.53;;;;;;;;;;5067393;28;20184;-70
2023/06/17 09:40:49;;;;;;;9.93;7.22;;;;;;;;;;5072327;28;20196;-70
2023/06/17 09:43:15;;;;;;;11.20;7.70;;;;;;;;;;5079263;28;20397;-70
2023/06/17 09:45:40;;;;;;;9.23;7.50;;;;;;;;;;5073603;28;20405;-70
2023/06/17 09:48:09;;;;;;;11.88;6.72;;;;;;;;;;5076731;28;20196;-71
2023/06/17 09:50:36;;;;;;;8.82;5.93;;;;;;;;;;5078279;28;20638;-71
2023/06/17 09:53:02;;;;;;;8.07;6.28;;;;;;;;;;5078234;28;20267;-71
2023/06/17 09:55:28;;;;;;;9.27;6.68;;;;;;;;;;5073736;28;20318;-70
2023/06/17 09:57:55;;;;;;;7.72;6.40;;;;;;;;;;5085001;28;20709;-70
2023/06/17 10:00:24;;;;;;;9.20;7.43;;;;;;;;;;5071042;28;20189;-71
2023/06/17 10:02:52;;;;;;;9.48;7.40;;;;;;;;;;5077925;28;20206;-70
2023/06/17 10:05:20;;;;;;;10.77;7.10;;;;;;;;;;5076832;28;20212;-70
2023/06/17 10:07:46;;;;;;;8.10;6.03;;;;;;;;;;5072728;28;20184;-71
2023/06/17 10:10:14;;;;;;;9.10;5.65;;;;;;;;;;5074963;28;20818;-71
2023/06/17 10:12:43;;;;;;;9.75;7.03;;;;;;;;;;5076703;28;20196;-70
2023/06/17 10:15:11;;;;;;;7.22;6.15;;;;;;;;;;5085604;28;20172;-72
2023/06/17 10:17:38;;;;;;;12.07;5.95;;;;;;;;;;5089734;28;20196;-70
2023/06/17 10:20:07;;;;;;;45.38;8.50;;;;;;;;;;5083927;28;20190;-71
2023/06/17 10:22:36;;;;;;;14.05;6.70;;;;;;;;;;5073862;28;20276;-70
2023/06/17 10:25:01;;;;;;;19.35;6.95;;;;;;;;;;5073775;28;20590;-71
2023/06/17 10:27:28;;;;;;;8.57;7.10;;;;;;;;;;5078051;28;20280;-69
2023/06/17 10:29:57;;;;;;;10.63;6.55;;;;;;;;;;5075095;28;20562;-70
2023/06/17 10:32:24;;;;;;;8.80;6.25;;;;;;;;;;5081562;28;20181;-70
2023/06/17 10:35:06;;;;;;;10.40;7.38;;;;;;;;;;5083562;28;20230;-70
2023/06/17 10:37:40;;;;;;;9.20;6.13;;;;;;;;;;5081141;28;20215;-70
2023/06/17 10:40:25;;;;;;;9.10;6.18;;;;;;;;;;5079573;28;20235;-70
2023/06/17 10:43:03;;;;;;;10.23;5.53;;;;;;;;;;5086465;28;20203;-72
2023/06/17 10:45:29;;;;;;;8.13;6.03;;;;;;;;;;5079368;28;20219;-68
2023/06/17 10:48:14;;;;;;;8.85;5.25;;;;;;;;;;5087902;28;20686;-71
2023/06/17 10:50:41;;;;;;;6.88;5.25;;;;;;;;;;5083419;28;20191;-70
2023/06/17 10:53:07;;;;;;;7.35;5.28;;;;;;;;;;5082845;28;20192;-70
2023/06/17 10:55:33;;;;;;;6.82;5.68;;;;;;;;;;5074789;28;20196;-69
2023/06/17 10:57:58;;;;;;;8.90;5.80;;;;;;;;;;5071789;28;20192;-70
2023/06/17 11:00:23;;;;;;;8.57;6.30;;;;;;;;;;5076652;28;20208;-71
2023/06/17 11:02:49;;;;;;;8.77;6.30;;;;;;;;;;5075207;28;20193;-70
2023/06/17 11:05:15;;;;;;;8.90;6.05;;;;;;;;;;5071283;28;20232;-68
2023/06/17 11:07:40;;;;;;;11.73;5.78;;;;;;;;;;5070134;28;20200;-71
2023/06/17 11:10:06;;;;;;;7.55;5.53;;;;;;;;;;5076606;28;20206;-70
2023/06/17 11:12:34;;;;;;;6.28;5.13;;;;;;;;;;4381199;28;10000736;-70
2023/06/17 11:15:03;;;;;;;9.52;5.35;;;;;;;;;;5079471;28;20624;-70
2023/06/17 11:17:28;;;;;;;9.73;5.43;;;;;;;;;;5078617;28;20192;-71
2023/06/17 11:19:54;;;;;;;6.38;5.25;;;;;;;;;;5080852;28;20195;-71
2023/06/17 11:22:19;;;;;;;8.32;6.50;;;;;;;;;;5082310;28;20255;-71
2023/06/17 11:24:45;;;;;;;6.90;5.53;;;;;;;;;;5074653;28;20726;-71
2023/06/17 11:27:11;;;;;;;7.18;5.43;;;;;;;;;;5080059;28;20192;-73
2023/06/17 11:29:40;;;;;;;6.65;4.85;;;;;;;;;;5084564;28;20188;-71
2023/06/17 11:32:07;;;;;;;6.22;5.57;;;;;;;;;;5085914;28;20245;-71
2023/06/17 11:34:32;;;;;;;5.78;4.53;;;;;;;;;;5081991;28;20223;-71
2023/06/17 11:37:00;;;;;;;5.70;4.20;;;;;;;;;;5081946;28;20200;-70
2023/06/17 11:39:30;;;;;;;8.82;4.30;;;;;;;;;;5076939;28;20340;-70
2023/06/17 11:42:03;;;;;;;7.25;4.63;;;;;;;;;;5082086;28;20756;-74
2023/06/17 11:44:32;;;;;;;8.85;5.00;;;;;;;;;;5082915;28;20607;-71
2023/06/17 11:47:04;;;;;;;6.72;5.22;;;;;;;;;;5072771;28;20608;-71
2023/06/17 11:49:30;;;;;;;4.70;4.28;;;;;;;;;;5077960;28;20297;-71
2023/06/17 11:52:01;;;;;;;5.63;4.55;;;;;;;;;;5084571;28;20202;-70
2023/06/17 11:54:26;;;;;;;6.13;4.50;;;;;;;;;;5085279;28;20188;-70
2023/06/17 11:56:52;;;;;;;6.57;4.80;;;;;;;;;;5085221;28;20615;-70
2023/06/17 11:59:21;;;;;;;5.72;4.07;;;;;;;;;;5086068;28;20196;-70
2023/06/17 12:01:46;;;;;;;5.82;4.38;;;;;;;;;;5083563;28;20218;-70
2023/06/17 12:04:14;;;;;;;7.97;5.68;;;;;;;;;;5082809;28;20499;-70
2023/06/17 12:06:41;;;;;;;6.32;5.28;;;;;;;;;;5074779;28;20695;-70
2023/06/17 12:09:08;;;;;;;6.43;5.45;;;;;;;;;;5075786;28;20271;-71
2023/06/17 12:11:37;;;;;;;8.20;5.38;;;;;;;;;;5085554;28;20199;-71
2023/06/17 12:14:07;;;;;;;6.20;5.57;;;;;;;;;;5079060;28;20469;-70
2023/06/17 12:16:37;;;;;;;6.82;5.10;;;;;;;;;;5079487;28;20647;-68
2023/06/17 12:19:06;;;;;;;5.60;5.00;;;;;;;;;;5080332;28;20191;-67
2023/06/17 12:21:32;;;;;;;8.30;5.18;;;;;;;;;;5078575;28;20676;-69
2023/06/17 12:23:57;;;;;;;5.78;5.18;;;;;;;;;;5074623;28;20578;-69
2023/06/17 12:26:23;;;;;;;6.32;4.88;;;;;;;;;;5078655;28;20197;-69
2023/06/17 12:28:49;;;;;;;5.65;5.10;;;;;;;;;;5071893;28;20891;-70
2023/06/17 12:31:14;;;;;;;7.97;4.93;;;;;;;;;;5076444;28;20377;-70
2023/06/17 12:33:40;;;;;;;6.93;5.38;;;;;;;;;;5085685;28;20307;-70
2023/06/17 12:36:06;;;;;;;6.68;5.85;;;;;;;;;;5083631;28;20211;-70
2023/06/17 12:38:32;;;;;;;7.45;5.03;;;;;;;;;;5084047;28;20188;-69
2023/06/17 12:40:59;;;;;;;9.43;5.35;;;;;;;;;;5072053;28;20187;-70
2023/06/17 12:43:25;;;;;;;8.88;6.20;;;;;;;;;;5071145;28;20306;-70
2023/06/17 12:45:50;;;;;;;12.55;5.60;;;;;;;;;;5070947;28;20648;-69
2023/06/17 12:48:16;;;;;;;12.80;5.78;;;;;;;;;;5077916;28;20200;-71
2023/06/17 12:50:42;;;;;;;8.02;5.50;;;;;;;;;;5075966;28;20666;-70
2023/06/17 12:53:08;;;;;;;9.68;5.63;;;;;;;;;;5078004;28;20272;-70
2023/06/17 12:55:33;;;;;;;8.88;5.55;;;;;;;;;;5073613;28;20275;-71
2023/06/17 12:57:59;;;;;;;8.70;5.10;;;;;;;;;;5083321;28;20899;-70
2023/06/17 13:00:24;;;;;;;7.22;5.20;;;;;;;;;;5082464;28;20222;-71
2023/06/17 13:02:49;;;;;;;7.78;5.07;;;;;;;;;;5078448;28;20191;-70
2023/06/17 13:05:15;;;;;;;6.82;5.43;;;;;;;;;;5084582;28;20212;-69
2023/06/17 13:07:41;;;;;;;10.10;4.88;;;;;;;;;;5080344;28;20655;-71
2023/06/17 13:10:07;;;;;;;11.23;5.63;;;;;;;;;;5081108;28;20188;-71
2023/06/17 13:12:33;;;;;;;11.68;5.65;;;;;;;;;;5078700;28;20277;-70
2023/06/17 13:14:59;;;;;;;8.63;5.18;;;;;;;;;;5071942;28;20626;-71
2023/06/17 13:17:24;;;;;;;7.60;5.07;;;;;;;;;;5081879;28;20184;-71
2023/06/17 13:19:50;;;;;;;7.70;5.22;;;;;;;;;;5070157;28;20194;-71
2023/06/17 13:22:15;;;;;;;9.52;5.03;;;;;;;;;;5083766;28;20402;-70
2023/06/17 13:24:41;;;;;;;6.45;5.40;;;;;;;;;;5066624;28;20209;-71
2023/06/17 13:27:06;;;;;;;6.50;5.20;;;;;;;;;;5077749;28;20272;-70
2023/06/17 13:29:32;;;;;;;6.82;5.18;;;;;;;;;;5068589;28;20667;-70
2023/06/17 13:31:57;;;;;;;5.35;4.85;;;;;;;;;;5078452;28;20192;-70
2023/06/17 13:34:23;;;;;;;8.95;4.95;;;;;;;;;;5084691;28;20199;-69
2023/06/17 13:36:48;;;;;;;9.88;5.15;;;;;;;;;;5085592;28;20195;-68
2023/06/17 13:39:13;;;;;;;9.13;5.25;;;;;;;;;;5072506;28;20255;-68
2023/06/17 13:41:39;;;;;;;7.85;5.15;;;;;;;;;;5074437;28;20197;-69
2023/06/17 13:44:05;;;;;;;5.70;4.95;;;;;;;;;;5071543;28;20222;-70
2023/06/17 13:46:31;;;;;;;8.25;4.82;;;;;;;;;;5072548;28;20180;-69
2023/06/17 13:48:56;;;;;;;8.43;4.70;;;;;;;;;;5080760;28;20244;-69
2023/06/17 13:51:22;;;;;;;8.27;5.20;;;;;;;;;;5069574;28;20684;-70
2023/06/17 13:53:47;;;;;;;5.75;4.95;;;;;;;;;;5069405;28;20188;-70
2023/06/17 13:56:12;;;;;;;6.30;5.03;;;;;;;;;;5072003;28;20181;-70
2023/06/17 13:58:38;;;;;;;7.45;5.40;;;;;;;;;;5071016;28;20192;-70
2023/06/17 14:01:03;;;;;;;7.50;5.10;;;;;;;;;;5086181;28;20562;-70
2023/06/17 14:03:30;;;;;;;8.65;5.45;;;;;;;;;;5088710;28;20191;-69
2023/06/17 14:05:56;;;;;;;6.28;5.43;;;;;;;;;;5075607;28;20211;-70
2023/06/17 14:08:21;;;;;;;5.95;5.35;;;;;;;;;;5086758;28;20191;-70
2023/06/17 14:10:47;;;;;;;6.00;5.40;;;;;;;;;;5080962;28;20193;-70
2023/06/17 14:13:12;;;;;;;7.35;5.05;;;;;;;;;;5076654;28;20231;-70
2023/06/17 14:15:38;;;;;;;5.85;5.22;;;;;;;;;;5085481;28;20212;-70
2023/06/17 14:18:04;;;;;;;7.57;5.07;;;;;;;;;;5088070;28;20192;-71
2023/06/17 14:20:29;;;;;;;7.78;5.55;;;;;;;;;;5084156;28;20452;-70